Latest Coastal Weather Observations for Red Rocks Point

IDW60701

Issued at 9:21 am WST Monday 2 May 2016 (issued every 10 minutes, with the page automatically refreshed every 10 minutes)

About coastal observations | Map of coastal stations | Coastal observations for WA | Marine services | Other Formats
Station Details ID: 011053 Name: RED ROCKS POINT Lat: -32.20 Lon: 127.53 Height: 3.1 m
Data from the previous 72 hours. | See also: Recent months at Red Rocks Point
Date/Time
WST
Temp

°C
Wind Pressure Rain
since 9am
mm
Weather Cloud Vis
km
Sea
Height
m
Swell
Dir
 
Speed
knots
Gust
knots
hPa Trend Height
m
Period
s
Dir
02/09:00am 17.6 WNW 10 15 1018.4 - 0.0 - - - - - - -
02/08:30am 15.8 NW 9 13 1018.3 - 0.0 - - - - - - -
02/08:00am 13.6 NW 8 11 1018.4 - 0.0 - - - - - - -
02/07:30am 11.3 NW 7 11 1018.2 - 0.0 - - - - - - -
02/07:00am 9.0 NW 7 11 1017.9 - 0.0 - - - - - - -
02/06:30am 7.1 NW 7 9 1017.9 - 0.0 - - - - - - -
02/06:00am 6.8 NW 7 9 1017.8 - 0.0 - - - - - - -
02/05:30am 7.4 NW 6 8 1017.6 - 0.0 - - - - - - -
02/05:00am 7.4 NW 7 10 1017.3 - 0.0 - - - - - - -
02/04:30am 7.3 NNW 8 11 1017.2 - 0.0 - - - - - - -
02/04:00am 7.5 NNW 8 11 1017.1 - 0.0 - - - - - - -
02/03:30am 7.4 NW 7 11 1017.1 - 0.0 - - - - - - -
02/03:00am 7.2 NNW 9 11 1017.1 - 0.0 - - - - - - -
02/02:30am 7.3 NNW 9 11 1017.4 - 0.0 - - - - - - -
02/02:00am 7.1 NNW 9 11 1017.7 - 0.0 - - - - - - -
02/01:30am 7.7 NNW 9 11 1018.0 - 0.0 - - - - - - -
02/01:00am 8.3 NW 9 10 1018.0 - 0.0 - - - - - - -
02/12:30am 8.4 NW 8 10 1018.1 - 0.0 - - - - - - -
02/12:00am 8.5 NW 9 10 1018.3 - 0.0 - - - - - - -
 
Date/Time
WST
Temp

°C
Wind Pressure Rain
since 9am
mm
Weather Cloud Vis
km
Sea
Height
m
Swell
Dir
 
Speed
knots
Gust
knots
hPa Trend Height
m
Period
s
Dir
01/11:30pm 8.5 NNW 9 11 1018.4 - 0.0 - - - - - - -
01/11:00pm 8.8 NNW 9 10 1018.7 - 0.0 - - - - - - -
01/10:30pm 9.3 NW 9 11 1019.0 - 0.0 - - - - - - -
01/10:00pm 9.5 NW 9 10 1019.4 - 0.0 - - - - - - -
01/09:30pm 9.5 NW 9 10 1019.6 - 0.0 - - - - - - -
01/09:00pm 9.6 NW 9 10 1019.7 - 0.0 - - - - - - -
01/08:30pm 10.2 NW 8 9 1019.6 - 0.0 - - - - - - -
01/08:00pm 11.8 NW 7 8 1019.7 - 0.0 - - - - - - -
01/07:30pm 13.9 W 6 9 1019.5 - 0.0 - - - - - - -
01/07:00pm 15.6 WSW 8 11 1019.6 - 0.0 - - - - - - -
01/06:30pm 15.7 WSW 7 11 1019.5 - 0.0 - - - - - - -
01/06:00pm 15.8 WSW 9 12 1019.3 - 0.0 - - - - - - -
01/05:30pm 16.1 WSW 9 13 1019.0 - 0.0 - - - - - - -
01/05:00pm 16.2 WSW 9 14 1018.6 - 0.0 - - - - - - -
01/04:30pm 16.9 WSW 9 14 1018.5 - 0.0 - - - - - - -
01/04:00pm 17.7 WSW 10 15 1018.4 - 0.0 - - - - - - -
01/03:30pm 18.4 WSW 11 17 1018.3 - 0.0 - - - - - - -
01/03:00pm 19.0 WSW 11 18 1018.3 - 0.0 - - - - - - -
01/02:30pm 19.2 SW 13 18 1018.4 - 0.0 - - - - - - -
01/02:00pm 19.2 SW 12 18 1018.3 - 0.0 - - - - - - -
01/01:30pm 19.4 SW 13 19 1018.4 - 0.0 - - - - - - -
01/01:00pm 18.1 SW 13 17 1018.8 - 0.0 - - - - - - -
01/12:30pm 18.2 SW 11 17 1019.0 - 0.0 - - - - - - -
01/12:00pm 17.7 SW 11 15 1019.5 - 0.0 - - - - - - -
01/11:30am 18.7 SW 10 14 1019.9 - 0.0 - - - - - - -
01/11:00am 19.9 W 9 14 1020.3 - 0.0 - - - - - - -
01/10:30am 19.3 W 8 11 1020.6 - 0.0 - - - - - - -
01/10:00am 17.9 NW 5 8 1020.8 - 0.0 - - - - - - -
01/09:30am 17.2 W 5 8 1021.1 - 0.0 - - - - - - -
01/09:00am 16.1 W 7 11 1021.4 - 4.4 - - - - - - -
01/08:30am 14.8 NW 7 9 1021.4 - 4.4 - - - - - - -
01/08:00am 13.5 NW 5 7 1021.4 - 4.4 - - - - - - -
01/07:30am 12.4 WNW 6 8 1021.1 - 4.4 - - - - - - -
01/07:00am 11.7 NW 7 10 1020.9 - 4.4 - - - - - - -
01/06:30am 11.6 NNW 8 10 1020.4 - 4.4 - - - - - - -
01/06:00am 11.1 NW 6 8 1020.4 - 4.4 - - - - - - -
01/05:30am 10.9 NW 8 10 1020.2 - 4.4 - - - - - - -
01/05:00am 10.3 NW 9 9 1020.2 - 4.4 - - - - - - -
01/04:30am 10.1 WNW 8 10 1019.9 - 4.2 - - - - - - -
01/04:00am 9.6 NW 8 10 1019.5 - 3.4 - - - - - - -
01/03:30am 9.6 NW 8 10 1019.4 - 3.4 - - - - - - -
01/03:00am 9.7 NW 9 11 1019.1 - 3.4 - - - - - - -
01/02:30am 9.9 NW 9 11 1019.1 - 3.4 - - - - - - -
01/02:00am 10.3 W 7 9 1019.1 - 3.4 - - - - - - -
01/01:30am 10.1 WNW 9 12 1019.3 - 3.4 - - - - - - -
01/01:00am 10.6 WNW 7 9 1019.3 - 3.4 - - - - - - -
01/12:30am 12.4 WNW 7 10 1019.1 - 3.4 - - - - - - -
01/12:00am 12.4 W 6 11 1019.1 - 3.4 - - - - - - -
 
Date/Time
WST
Temp

°C
Wind Pressure Rain
since 9am
mm
Weather Cloud Vis
km
Sea
Height
m
Swell
Dir
 
Speed
knots
Gust
knots
hPa Trend Height
m
Period
s
Dir
30/11:30pm 11.7 NW 8 10 1019.2 - 3.4 - - - - - - -
30/11:00pm 14.1 W 6 11 1019.3 - 3.4 - - - - - - -
30/10:30pm 15.6 SW 8 11 1019.3 - 3.4 - - - - - - -
30/10:00pm 15.4 SW 11 16 1019.3 - 3.4 - - - - - - -
30/09:30pm 15.3 SW 11 17 1019.1 - 3.4 - - - - - - -
30/09:00pm 15.0 SW 11 15 1018.9 - 3.4 - - - - - - -
30/08:30pm 13.8 WSW 8 12 1018.8 - 3.4 - - - - - - -
30/08:00pm 12.6 WNW 7 9 1018.9 - 3.4 - - - - - - -
30/07:30pm 12.9 NW 7 8 1018.6 - 3.4 - - - - - - -
30/07:00pm 13.7 WNW 8 12 1018.6 - 3.4 - - - - - - -
30/06:30pm 13.9 WNW 7 11 1018.0 - 3.4 - - - - - - -
30/06:00pm 13.8 WNW 8 13 1017.6 - 3.4 Recent precip. - - - - - -
30/05:30pm 13.8 W 11 18 1017.2 - 3.2 - - - - - - -
30/05:00pm 13.9 WNW 6 9 1016.7 - 2.8 - - - - - - -
30/04:30pm 14.4 WSW 14 22 1016.4 - 2.6 - - - - - - -
30/04:00pm 16.9 W 10 16 1015.8 - 1.6 - - - - - - -
30/03:30pm 16.9 W 13 18 1015.5 - 1.6 - - - - - - -
30/03:00pm 17.4 WSW 15 23 1015.1 - 1.6 - - - - - - -
30/02:33pm 17.7 WSW 15 25 1014.9 - 1.6 - - - - - - -
30/02:30pm 17.6 WSW 14 25 1014.8 - 1.6 - - - - - - -
30/02:00pm 18.4 WSW 15 23 1014.6 - 1.6 - - - - - - -
30/01:38pm 18.8 WSW 15 25 1014.2 - 1.6 - - - - - - -
30/01:30pm 17.8 WSW 16 21 1014.2 - 1.6 - - - - - - -
30/01:09pm 18.0 W 15 25 1014.0 - 1.6 - - - - - - -
30/01:00pm 18.8 W 14 21 1013.8 - 1.6 - - - - - - -
30/12:30pm 17.0 W 12 19 1013.8 - 1.6 - - - - - - -
30/12:03pm 16.2 W 15 28 1013.6 - 1.6 - - - - - - -
30/12:00pm 16.7 W 14 21 1013.6 - 1.6 - - - - - - -
30/11:46am 16.2 W 15 25 1013.6 - 1.6 - - - - - - -
30/11:30am 18.2 W 13 20 1013.2 - 1.6 - - - - - - -
30/11:00am 17.0 W 11 23 1013.3 - 1.6 - - - - - - -
30/10:30am 16.5 WNW 8 14 1013.5 - 1.6 - - - - - - -
30/10:00am 14.5 NW 7 10 1013.4 - 1.6 - - - - - - -
30/09:30am 14.2 W 10 16 1013.5 - 0.8 - - - - - - -
30/09:00am 14.4 WSW 14 24 1013.4 - 1.0 Rain - - - - - -
30/08:34am 15.5 WSW 16 26 1012.9 - 0.0 - - - - - - -
30/08:30am 15.5 SW 16 23 1012.9 - 0.0 - - - - - - -
30/08:11am 18.3 W 12 30 1012.4 - 0.0 - - - - - - -
30/08:00am 19.0 W 12 21 1011.7 - 0.0 - - - - - - -
30/07:30am 17.2 WNW 8 14 1011.4 - 0.0 - - - - - - -
30/07:00am 15.6 NW 7 11 1011.0 - 0.0 - - - - - - -
30/06:30am 14.9 NW 6 9 1010.5 - 0.0 - - - - - - -
30/06:00am 14.5 NW 8 12 1010.3 - 0.0 - - - - - - -
30/05:30am 14.2 NW 6 11 1010.2 - 0.0 - - - - - - -
30/05:00am 13.5 NNW 6 9 1010.1 - 0.0 - - - - - - -
30/04:30am 13.2 NNW 6 8 1009.9 - 0.0 - - - - - - -
30/04:00am 13.1 NW 6 8 1009.7 - 0.0 - - - - - - -
30/03:30am 11.8 NNW 6 8 1009.9 - 0.0 - - - - - - -
30/03:00am 11.7 NW 6 8 1010.0 - 0.0 - - - - - - -
30/02:30am 10.8 NW 6 7 1010.1 - 0.0 - - - - - - -
30/02:00am 10.8 NNW 5 7 1010.1 - 0.0 - - - - - - -
30/01:30am 11.0 NNW 6 8 1010.1 - 0.0 - - - - - - -
30/01:00am 11.9 NNW 6 8 1010.3 - 0.0 - - - - - - -
30/12:30am 12.6 NW 8 11 1010.6 - 0.0 - - - - - - -
30/12:00am 12.2 NW 9 11 1010.8 - 0.0 - - - - - - -
 
Date/Time
WST
Temp

°C
Wind Pressure Rain
since 9am
mm
Weather Cloud Vis
km
Sea
Height
m
Swell
Dir
 
Speed
knots
Gust
knots
hPa Trend Height
m
Period
s
Dir
29/11:30pm 12.1 NW 9 11 1011.2 - 0.0 - - - - - - -
29/11:00pm 11.9 NW 9 10 1011.3 - 0.0 - - - - - - -
29/10:30pm 12.6 NW 9 10 1011.4 - 0.0 - - - - - - -
29/10:00pm 12.6 NW 8 8 1011.6 - 0.0 - - - - - - -
29/09:30pm 12.2 NW 7 8 1011.6 - 0.0 - - - - - - -
29/09:00pm 12.4 NW 7 8 1011.6 - 0.0 - - - - - - -
29/08:30pm 12.9 NNW 7 7 1011.5 - 0.0 - - - - - - -
29/08:00pm 13.6 N 6 7 1011.6 - 0.0 - - - - - - -
29/07:30pm 14.3 N 5 7 1011.5 - 0.0 - - - - - - -
29/07:00pm 14.7 N 5 6 1011.6 - 0.0 - - - - - - -
29/06:30pm 14.7 NNE 4 5 1011.3 - 0.0 - - - - - - -
29/06:00pm 14.6 CALM 0 5 1011.0 - 0.0 - - - - - - -
29/05:30pm 15.5 CALM 0 1 1010.6 - 0.0 - - - - - - -
29/05:00pm 17.2 CALM 0 0 1010.4 - 0.0 - - - - - - -
29/04:30pm 19.4 WSW 2 4 1010.3 - 0.0 - - - - - - -
29/04:00pm 19.7 SSW 7 11 1010.4 - 0.0 - - - - - - -
29/03:30pm 20.2 SSW 8 10 1010.5 - 0.0 - - - - - - -
29/03:00pm 20.7 SSW 9 11 1010.5 - 0.0 - - - - - - -
29/02:30pm 20.8 SSW 11 14 1010.4 - 0.0 - - - - - - -
29/02:00pm 21.5 SSW 9 13 1010.4 - 0.0 - - - - - - -
29/01:30pm 21.7 SW 7 10 1010.7 - 0.0 - - - - - - -
29/01:00pm 23.6 WSW 9 13 1010.8 - 0.0 - - - - - - -
29/12:30pm 23.7 NW 12 19 1011.0 - 0.0 - - - - - - -
29/12:00pm 23.7 WNW 9 15 1011.6 - 0.0 - - - - - - -
29/11:30am 22.6 WNW 11 17 1012.1 - 0.0 - - - - - - -
29/11:00am 22.3 WNW 9 14 1012.3 - 0.0 - - - - - - -
29/10:30am 21.3 NW 11 18 1012.9 - 0.0 - - - - - - -
29/10:00am 20.7 NW 10 14 1013.4 - 0.0 - - - - - - -
29/09:30am 20.1 WNW 9 14 1014.0 - 0.0 - - - - - - -

Other Formats:

Comma delimited format used in spreadsheet applications
http://www.bom.gov.au/fwo/IDW60701/IDW60701.94644.axf

JavaScript Object Notation format (JSON) in row-major order
http://www.bom.gov.au/fwo/IDW60701/IDW60701.94644.json